Time;durP1;ratioP1;P1;durP2;ratioP2;P2;SDS_P1;SDS_P2;PMS_P1;PMS_P2;Temp;Humidity;BMP_temperature;BMP_pressure;BME280_temperature;BME280_humidity;BME280_pressure;Samples;Min_cycle;Max_cycle;Signal;HPM_P1;HPM_P2
2023/09/24 00:02:19;;;;;;;22.65;16.05;;;;;;;21.58;49.56;101420.44;5035614;28;20029;-44
2023/09/24 00:04:46;;;;;;;21.58;15.95;;;;;;;21.28;49.18;101413.72;5035744;28;20110;-44
2023/09/24 00:07:14;;;;;;;18.83;15.63;;;;;;;21.48;49.44;101414.94;5035680;28;20036;-49
2023/09/24 00:09:40;;;;;;;19.95;15.07;;;;;;;21.46;49.39;101406.22;5036040;28;20029;-45
2023/09/24 00:12:07;;;;;;;17.75;14.30;;;;;;;21.48;49.17;101404.06;5035559;28;20028;-49
2023/09/24 00:14:33;;;;;;;17.50;15.68;;;;;;;21.41;49.69;101400.75;5035512;28;20026;-47
2023/09/24 00:17:00;;;;;;;24.30;15.48;;;;;;;21.56;48.79;101409.00;5035674;28;20048;-45
2023/09/24 00:19:26;;;;;;;19.48;15.80;;;;;;;21.42;49.19;101405.94;5035339;28;20028;-46
2023/09/24 00:21:52;;;;;;;19.38;15.00;;;;;;;21.45;48.68;101412.78;5035350;28;20021;-46
2023/09/24 00:24:19;;;;;;;15.82;14.23;;;;;;;21.37;48.93;101403.19;5034964;28;20053;-47
2023/09/24 00:26:45;;;;;;;19.30;15.85;;;;;;;21.33;49.51;101404.81;5035181;28;20022;-51
2023/09/24 00:29:12;;;;;;;21.27;14.73;;;;;;;20.99;49.54;101401.59;5034980;28;20030;-46
2023/09/24 00:31:39;;;;;;;21.83;16.50;;;;;;;20.85;50.07;101387.59;5034944;28;20113;-47
2023/09/24 00:34:05;;;;;;;17.85;15.13;;;;;;;20.86;50.44;101389.22;5034991;28;20030;-45
2023/09/24 00:36:33;;;;;;;20.38;15.55;;;;;;;20.72;51.29;101394.31;5034879;28;20042;-45
2023/09/24 00:39:01;;;;;;;18.33;15.80;;;;;;;20.68;51.60;101393.19;5034920;28;20034;-45
2023/09/24 00:41:27;;;;;;;20.50;15.85;;;;;;;20.62;52.06;101382.53;5035217;28;20033;-46
2023/09/24 00:43:53;;;;;;;19.13;15.80;;;;;;;20.60;51.35;101390.94;5034597;28;20389;-45
2023/09/24 00:46:21;;;;;;;18.73;15.32;;;;;;;20.64;51.46;101381.16;5034119;28;20049;-45
2023/09/24 00:48:49;;;;;;;22.23;15.90;;;;;;;20.50;51.63;101374.53;5034772;28;20037;-46
2023/09/24 00:51:18;;;;;;;20.10;15.10;;;;;;;20.52;51.95;101373.19;5034901;28;20026;-44
2023/09/24 00:53:46;;;;;;;18.70;16.13;;;;;;;20.44;52.69;101376.38;5034532;28;20069;-52
2023/09/24 00:56:14;;;;;;;21.67;15.73;;;;;;;20.48;53.18;101382.13;5034739;28;20029;-48
2023/09/24 00:58:51;;;;;;;16.88;14.70;;;;;;;20.28;54.22;101372.69;5034640;28;20022;-45
2023/09/24 01:01:19;;;;;;;19.58;15.43;;;;;;;20.20;55.00;101361.44;5034627;28;20024;-53
2023/09/24 01:03:48;;;;;;;17.48;15.30;;;;;;;20.24;54.55;101352.53;5034244;28;20034;-48
2023/09/24 01:06:14;;;;;;;18.67;15.38;;;;;;;20.12;54.60;101365.47;5034301;28;20029;-51
2023/09/24 01:08:42;;;;;;;20.98;15.05;;;;;;;20.15;54.22;101369.53;5034603;28;20462;-50
2023/09/24 01:11:09;;;;;;;18.20;16.17;;;;;;;20.16;53.63;101369.31;5034583;28;20505;-46
2023/09/24 01:13:43;;;;;;;20.70;15.23;;;;;;;20.02;55.10;101379.75;5034007;28;20017;-45
2023/09/24 01:16:11;;;;;;;21.90;15.93;;;;;;;19.81;56.75;101375.16;5034104;28;20191;-44
2023/09/24 01:18:39;;;;;;;19.48;16.35;;;;;;;19.35;58.56;101365.63;5034087;28;20061;-48
2023/09/24 01:21:11;;;;;;;20.75;15.88;;;;;;;19.26;59.18;101371.47;5033959;28;20588;-45
2023/09/24 01:23:38;;;;;;;21.05;16.17;;;;;;;19.26;59.86;101373.38;5033957;28;20187;-45
2023/09/24 01:26:05;;;;;;;21.52;16.20;;;;;;;19.40;59.82;101369.22;5034144;28;20029;-47
2023/09/24 01:28:31;;;;;;;21.10;15.48;;;;;;;19.48;58.44;101363.34;5033996;28;20029;-48
2023/09/24 01:30:59;;;;;;;21.95;15.88;;;;;;;19.45;56.62;101363.88;5034078;28;20160;-46
2023/09/24 01:33:26;;;;;;;20.80;15.73;;;;;;;19.60;56.38;101374.13;5034036;28;20041;-46
2023/09/24 01:35:52;;;;;;;22.77;15.68;;;;;;;19.50;57.34;101365.81;5033723;28;20036;-47
2023/09/24 01:38:19;;;;;;;25.02;17.85;;;;;;;19.51;57.41;101378.31;5034234;28;20025;-47
2023/09/24 01:40:45;;;;;;;20.48;17.42;;;;;;;19.22;57.89;101383.09;5033924;28;20058;-47
2023/09/24 01:43:14;;;;;;;19.25;16.42;;;;;;;19.27;57.49;101388.59;5033829;28;20030;-48
2023/09/24 01:45:40;;;;;;;22.48;16.23;;;;;;;19.17;58.06;101381.13;5033844;28;20032;-48
2023/09/24 01:48:07;;;;;;;23.00;17.30;;;;;;;18.86;59.11;101387.16;5033723;28;20382;-48
2023/09/24 01:50:35;;;;;;;22.27;16.30;;;;;;;18.88;58.75;101385.06;5033613;28;20470;-47
2023/09/24 01:53:02;;;;;;;22.33;16.65;;;;;;;18.74;59.26;101381.84;5034579;28;20451;-47
2023/09/24 01:55:29;;;;;;;22.10;16.45;;;;;;;18.73;59.65;101389.16;5033538;28;20030;-48
2023/09/24 01:57:56;;;;;;;20.50;16.58;;;;;;;18.44;60.41;101384.84;5032079;28;20025;-47
2023/09/24 02:00:23;;;;;;;21.10;16.23;;;;;;;18.38;60.86;101385.84;5033375;28;20612;-48
2023/09/24 02:03:02;;;;;;;19.45;16.63;;;;;;;18.26;61.37;101376.91;5033206;28;20079;-42
2023/09/24 02:05:33;;;;;;;22.85;18.30;;;;;;;18.34;61.14;101379.25;5033446;28;20493;-40
2023/09/24 02:08:00;;;;;;;24.65;18.20;;;;;;;18.19;61.87;101377.91;5033227;28;20388;-40
2023/09/24 02:10:27;;;;;;;18.88;16.85;;;;;;;18.08;62.14;101384.19;5033100;28;20025;-42
2023/09/24 02:12:55;;;;;;;24.88;17.88;;;;;;;18.15;61.92;101376.72;5032948;28;20365;-41
2023/09/24 02:15:25;;;;;;;24.10;17.05;;;;;;;18.10;62.18;101373.09;5032993;28;20109;-42
2023/09/24 02:17:52;;;;;;;22.27;17.33;;;;;;;17.90;62.84;101378.97;5033057;28;20029;-42
2023/09/24 02:20:23;;;;;;;23.90;18.05;;;;;;;17.91;62.82;101375.22;5032972;28;20071;-42
2023/09/24 02:22:50;;;;;;;24.73;17.75;;;;;;;17.63;64.13;101379.50;5032931;28;20033;-42
2023/09/24 02:25:20;;;;;;;24.77;17.70;;;;;;;17.78;63.86;101376.31;5032913;28;20112;-43
2023/09/24 02:27:52;;;;;;;21.83;17.58;;;;;;;17.71;63.77;101375.59;5032879;28;20101;-41
2023/09/24 02:30:20;;;;;;;21.65;16.58;;;;;;;17.60;63.99;101373.72;5032793;28;20025;-42
2023/09/24 02:32:47;;;;;;;22.38;16.95;;;;;;;17.49;64.41;101370.03;5032952;28;20493;-43
2023/09/24 02:35:14;;;;;;;25.38;17.58;;;;;;;17.55;64.63;101366.34;5032561;28;20040;-41
2023/09/24 02:37:52;;;;;;;22.00;17.60;;;;;;;17.54;64.77;101367.41;5032573;28;20068;-41
2023/09/24 02:40:26;;;;;;;23.55;17.20;;;;;;;17.39;65.19;101376.03;5032718;28;20033;-42
2023/09/24 02:42:54;;;;;;;21.17;16.58;;;;;;;17.37;65.34;101375.44;5032989;28;20037;-41
2023/09/24 02:45:21;;;;;;;24.95;17.90;;;;;;;17.35;65.75;101371.34;5032688;28;20028;-41
2023/09/24 02:47:49;;;;;;;20.83;16.60;;;;;;;17.46;65.72;101361.53;5033430;28;20414;-41
2023/09/24 02:50:16;;;;;;;22.27;17.67;;;;;;;17.36;66.06;101372.97;5032640;28;20025;-41
2023/09/24 02:52:44;;;;;;;26.05;17.55;;;;;;;17.24;66.51;101364.06;5032640;28;20037;-44
2023/09/24 02:55:13;;;;;;;22.67;16.98;;;;;;;17.34;66.51;101370.50;5032843;28;20072;-40
2023/09/24 02:57:46;;;;;;;22.52;17.38;;;;;;;17.05;67.43;101376.91;5032811;28;20030;-41
2023/09/24 03:00:18;;;;;;;21.35;17.33;;;;;;;17.11;67.25;101374.06;5032812;28;20026;-40
2023/09/24 03:02:45;;;;;;;26.10;18.13;;;;;;;16.97;67.89;101377.25;5032587;28;20033;-40
2023/09/24 03:05:12;;;;;;;19.73;16.05;;;;;;;17.04;67.75;101367.94;5032776;28;20363;-40
2023/09/24 03:07:44;;;;;;;25.88;16.83;;;;;;;17.00;67.99;101368.66;5032120;28;20105;-40
2023/09/24 03:10:13;;;;;;;25.17;18.98;;;;;;;17.00;68.38;101372.19;5034856;28;20443;-40
2023/09/24 03:12:40;;;;;;;22.92;18.33;;;;;;;17.01;68.66;101379.25;5036296;28;20092;-40
2023/09/24 03:15:10;;;;;;;24.10;17.48;;;;;;;16.87;68.74;101377.81;5036329;28;20022;-41
2023/09/24 03:17:37;;;;;;;19.08;16.00;;;;;;;16.84;68.54;101370.19;5036601;28;20363;-41
2023/09/24 03:20:14;;;;;;;23.52;17.10;;;;;;;16.76;68.64;101382.16;5036147;28;20079;-41
2023/09/24 03:23:03;;;;;;;20.95;17.38;;;;;;;16.83;68.46;101382.06;5036112;28;20025;-40
2023/09/24 03:25:29;;;;;;;23.05;17.95;;;;;;;16.80;68.89;101390.63;5036360;28;20033;-41
2023/09/24 03:27:57;;;;;;;18.80;16.30;;;;;;;16.74;68.90;101391.56;5036429;28;20030;-41
2023/09/24 03:30:25;;;;;;;20.67;17.08;;;;;;;16.69;69.10;101394.13;5036338;28;20029;-46
2023/09/24 03:32:52;;;;;;;18.70;16.52;;;;;;;16.70;69.38;101395.75;5036176;28;20438;-45
2023/09/24 03:35:24;;;;;;;22.83;16.92;;;;;;;16.76;69.42;101397.56;5036045;28;20036;-46
2023/09/24 03:37:51;;;;;;;24.30;18.60;;;;;;;16.66;69.76;101391.88;5035845;28;20046;-47
2023/09/24 03:40:18;;;;;;;23.33;17.33;;;;;;;16.57;70.62;101396.81;5036274;28;20029;-47
2023/09/24 03:42:45;;;;;;;21.60;16.88;;;;;;;16.45;70.80;101407.59;5035834;28;20025;-47
2023/09/24 03:45:14;;;;;;;22.10;16.67;;;;;;;16.44;70.40;101397.84;5035959;28;20220;-45
2023/09/24 03:47:41;;;;;;;26.48;18.00;;;;;;;16.56;70.13;101395.97;5036130;28;20143;-43
2023/09/24 03:50:10;;;;;;;21.52;17.58;;;;;;;16.50;70.64;101402.31;5035827;28;20544;-41
2023/09/24 03:52:37;;;;;;;22.67;18.00;;;;;;;16.45;70.67;101396.78;5035788;28;20078;-41
2023/09/24 03:55:04;;;;;;;23.25;18.40;;;;;;;16.35;71.31;101399.22;5035707;28;20025;-42
2023/09/24 03:57:31;;;;;;;24.67;19.10;;;;;;;16.45;71.46;101409.47;5035567;28;20029;-42
2023/09/24 03:59:58;;;;;;;21.63;16.90;;;;;;;16.35;71.81;101405.44;5035468;28;20021;-42
2023/09/24 04:02:27;;;;;;;25.23;18.00;;;;;;;16.45;71.63;101404.88;5035442;28;20028;-41
2023/09/24 04:04:54;;;;;;;24.75;17.95;;;;;;;16.39;72.21;101408.53;5035673;28;20068;-42
2023/09/24 04:07:20;;;;;;;23.10;17.48;;;;;;;16.29;72.35;101411.78;5035594;28;20029;-42
2023/09/24 04:09:50;;;;;;;23.20;19.05;;;;;;;16.23;72.79;101407.28;5035622;28;20049;-42
2023/09/24 04:12:16;;;;;;;26.45;19.15;;;;;;;16.32;72.77;101413.16;5035353;28;20028;-42
2023/09/24 04:14:43;;;;;;;22.58;17.35;;;;;;;16.12;72.72;101420.75;5035396;28;20060;-42
2023/09/24 04:17:09;;;;;;;25.88;18.70;;;;;;;16.05;72.53;101432.47;5035286;28;20036;-42
2023/09/24 04:19:36;;;;;;;22.60;18.02;;;;;;;16.00;72.52;101434.19;5035389;28;20474;-43
2023/09/24 04:22:02;;;;;;;25.67;20.33;;;;;;;16.00;72.54;101440.44;5034253;28;20029;-42
2023/09/24 04:24:28;;;;;;;25.65;19.15;;;;;;;16.00;73.05;101445.00;5035204;28;20450;-41
2023/09/24 04:26:55;;;;;;;26.42;19.65;;;;;;;16.13;72.80;101427.78;5036214;28;20064;-41
2023/09/24 04:29:21;;;;;;;29.52;20.40;;;;;;;15.88;74.17;101430.59;5050537;28;20407;-41
2023/09/24 04:31:47;;;;;;;23.42;18.20;;;;;;;16.08;74.84;101437.41;5035010;28;20443;-42
2023/09/24 04:34:14;;;;;;;21.65;16.83;;;;;;;15.69;75.63;101433.31;5035207;28;20441;-42
2023/09/24 04:36:41;;;;;;;20.35;14.18;;;;;;;15.74;75.14;101435.34;5035136;28;20552;-41
2023/09/24 04:39:10;;;;;;;17.00;12.88;;;;;;;15.48;77.12;101429.16;5034968;28;20029;-41
2023/09/24 04:41:42;;;;;;;16.15;12.93;;;;;;;15.18;78.08;101433.63;5035214;28;20037;-41
2023/09/24 04:44:09;;;;;;;18.38;13.30;;;;;;;15.29;77.27;101444.50;5034932;28;20060;-41
2023/09/24 04:46:35;;;;;;;14.98;11.88;;;;;;;15.56;76.80;101447.75;5034858;28;20033;-41
2023/09/24 04:49:05;;;;;;;16.15;11.15;;;;;;;15.57;76.25;101446.69;5034831;28;20060;-41
2023/09/24 04:51:33;;;;;;;15.07;10.93;;;;;;;15.35;76.78;101442.78;5034690;28;20393;-41
2023/09/24 04:54:00;;;;;;;11.48;10.13;;;;;;;15.03;77.60;101448.25;5034653;28;20061;-41
2023/09/24 04:56:27;;;;;;;14.27;11.75;;;;;;;14.91;77.84;101452.72;5034804;28;20466;-41
2023/09/24 04:58:54;;;;;;;15.10;11.55;;;;;;;15.02;78.09;101448.47;5034586;28;20030;-42
2023/09/24 05:01:20;;;;;;;13.18;11.60;;;;;;;15.04;77.71;101446.38;5034933;28;20037;-41
2023/09/24 05:03:49;;;;;;;12.27;11.00;;;;;;;14.88;78.20;101436.16;5034409;28;20458;-41
2023/09/24 05:06:17;;;;;;;12.02;10.55;;;;;;;14.89;77.79;101435.94;5034378;28;20022;-43
2023/09/24 05:08:43;;;;;;;12.27;10.80;;;;;;;14.85;77.65;101431.22;5034459;28;20055;-41
2023/09/24 05:11:13;;;;;;;12.27;10.13;;;;;;;14.82;77.36;101429.78;5034403;28;20461;-41
2023/09/24 05:13:40;;;;;;;12.23;10.52;;;;;;;14.81;77.00;101425.44;5034292;28;20025;-41
2023/09/24 05:16:08;;;;;;;13.50;10.68;;;;;;;14.71;77.38;101420.56;5034337;28;20026;-41
2023/09/24 05:18:34;;;;;;;13.48;11.55;;;;;;;14.71;77.02;101425.09;5033815;28;20021;-42
2023/09/24 05:21:02;;;;;;;15.85;13.23;;;;;;;14.68;78.10;101402.13;5034257;28;20504;-41
2023/09/24 05:23:29;;;;;;;16.40;12.70;;;;;;;14.75;77.81;101413.66;5034347;28;20061;-41
2023/09/24 05:25:55;;;;;;;18.92;12.75;;;;;;;14.89;77.38;101427.88;5033999;28;20022;-41
2023/09/24 05:28:21;;;;;;;12.02;10.65;;;;;;;14.75;77.55;101426.31;5034467;28;20118;-41
2023/09/24 05:30:54;;;;;;;13.60;12.00;;;;;;;14.64;77.37;101408.97;5034372;28;20513;-42
2023/09/24 05:33:21;;;;;;;12.45;11.10;;;;;;;14.54;77.60;101397.84;5033690;28;20136;-41
2023/09/24 05:35:54;;;;;;;18.33;12.68;;;;;;;14.42;78.03;101413.88;5033847;28;20056;-41
2023/09/24 05:38:21;;;;;;;13.93;11.55;;;;;;;14.41;77.65;101420.31;5034187;28;20164;-41
2023/09/24 05:40:48;;;;;;;13.65;11.18;;;;;;;14.35;77.59;101415.78;5034618;28;20025;-41
2023/09/24 05:43:15;;;;;;;13.65;10.77;;;;;;;14.33;77.12;101415.19;5033658;28;20068;-41
2023/09/24 05:45:49;;;;;;;13.57;11.52;;;;;;;14.27;78.03;101421.44;5033646;28;20021;-41
2023/09/24 05:48:19;;;;;;;12.77;11.45;;;;;;;14.34;77.38;101408.75;5033575;28;20080;-41
2023/09/24 05:50:46;;;;;;;16.80;13.07;;;;;;;14.34;77.07;101410.63;5033647;28;20021;-41
2023/09/24 05:53:13;;;;;;;15.07;13.48;;;;;;;14.22;77.12;101415.88;5033616;28;20029;-41
2023/09/24 05:55:40;;;;;;;14.68;13.10;;;;;;;14.17;77.48;101410.31;5033525;28;20425;-41
2023/09/24 05:58:07;;;;;;;17.10;14.23;;;;;;;14.13;77.43;101409.09;5033745;28;20072;-41
2023/09/24 06:00:37;;;;;;;16.98;13.75;;;;;;;14.11;77.58;101411.19;5033939;28;20036;-41
2023/09/24 06:03:04;;;;;;;15.13;13.27;;;;;;;14.10;77.21;101401.44;5033532;28;20041;-41
2023/09/24 06:05:30;;;;;;;19.52;15.07;;;;;;;13.97;77.46;101408.53;5033523;28;20100;-41
2023/09/24 06:07:56;;;;;;;15.68;14.18;;;;;;;13.94;77.35;101408.97;5033658;28;20025;-41
2023/09/24 06:10:23;;;;;;;17.48;13.95;;;;;;;13.91;77.40;101420.16;5033266;28;20228;-41
2023/09/24 06:12:50;;;;;;;18.27;14.68;;;;;;;13.90;77.25;101423.06;5033557;28;20021;-41
2023/09/24 06:15:17;;;;;;;18.10;14.23;;;;;;;13.92;77.07;101426.38;5033390;28;20021;-41
2023/09/24 06:17:44;;;;;;;16.10;12.68;;;;;;;13.85;77.27;101426.41;5033082;28;20402;-41
2023/09/24 06:20:11;;;;;;;14.05;12.25;;;;;;;13.84;76.85;101410.47;5033094;28;20022;-41
2023/09/24 06:22:37;;;;;;;13.55;11.48;;;;;;;13.74;77.12;101411.75;5033046;28;20109;-40
2023/09/24 06:25:03;;;;;;;11.68;10.48;;;;;;;13.75;76.90;101415.25;5033106;28;20039;-41
2023/09/24 06:27:30;;;;;;;11.73;9.52;;;;;;;13.71;77.35;101408.63;5032938;28;20428;-40
2023/09/24 06:29:56;;;;;;;10.95;8.73;;;;;;;13.68;77.72;101409.09;5033454;28;20052;-41
2023/09/24 06:32:22;;;;;;;9.18;8.18;;;;;;;13.69;78.23;101410.72;5032867;28;20021;-40
2023/09/24 06:34:49;;;;;;;9.82;8.75;;;;;;;13.82;78.53;101410.66;5032941;28;20028;-40
2023/09/24 06:37:15;;;;;;;12.02;8.77;;;;;;;13.80;78.56;101411.94;5032768;28;20513;-40
2023/09/24 06:39:42;;;;;;;11.13;8.15;;;;;;;13.77;78.59;101402.44;5032781;28;20048;-40
2023/09/24 06:42:08;;;;;;;11.57;9.52;;;;;;;13.91;79.92;101397.81;5032711;28;20441;-40
2023/09/24 06:44:35;;;;;;;11.02;9.23;;;;;;;13.73;80.17;101402.03;5032157;28;20022;-40
2023/09/24 06:47:01;;;;;;;13.90;10.85;;;;;;;13.78;80.95;101404.09;5033009;28;20075;-40
2023/09/24 06:49:27;;;;;;;10.85;9.55;;;;;;;13.74;81.26;101402.84;5032792;28;20022;-40
2023/09/24 06:51:53;;;;;;;11.07;8.45;;;;;;;13.70;82.32;101399.75;5032515;28;20490;-40
2023/09/24 06:54:20;;;;;;;13.10;8.93;;;;;;;13.93;83.34;101391.16;5032510;28;20078;-41
2023/09/24 06:56:46;;;;;;;12.75;8.82;;;;;;;14.00;84.08;101391.16;5032627;28;20037;-41
2023/09/24 06:59:12;;;;;;;8.95;7.75;;;;;;;13.96;84.79;101389.91;5033469;28;20033;-40
2023/09/24 07:01:39;;;;;;;8.35;6.50;;;;;;;14.04;85.98;101400.41;5032481;28;20017;-40
2023/09/24 07:04:05;;;;;;;7.30;6.50;;;;;;;13.87;86.71;101410.84;5032505;28;20033;-40
2023/09/24 07:06:32;;;;;;;5.53;5.00;;;;;;;13.81;87.31;101417.09;5033361;28;20365;-41
2023/09/24 07:09:00;;;;;;;8.43;5.35;;;;;;;13.79;87.95;101413.81;5032572;28;20112;-41
2023/09/24 07:11:32;;;;;;;5.47;4.97;;;;;;;13.88;88.03;101407.16;5032664;28;20044;-41
2023/09/24 07:13:59;;;;;;;5.78;5.20;;;;;;;13.87;88.63;101427.00;5033106;28;20025;-40
2023/09/24 07:16:26;;;;;;;5.63;4.72;;;;;;;13.86;88.83;101429.91;5032893;28;20370;-41
2023/09/24 07:18:54;;;;;;;5.75;4.72;;;;;;;13.72;88.77;101427.28;5032491;28;20103;-41
2023/09/24 07:21:26;;;;;;;9.23;4.82;;;;;;;13.79;88.75;101429.13;5032744;28;20104;-40
2023/09/24 07:23:56;;;;;;;5.07;3.88;;;;;;;13.94;88.77;101419.75;5032516;28;20389;-41
2023/09/24 07:26:23;;;;;;;3.90;3.50;;;;;;;13.83;89.00;101417.72;5032770;28;20032;-40
2023/09/24 07:28:50;;;;;;;5.72;3.90;;;;;;;13.86;89.04;101411.06;5032381;28;20052;-41
2023/09/24 07:31:24;;;;;;;4.22;3.47;;;;;;;13.88;88.82;101415.22;5032313;28;20032;-41
2023/09/24 07:33:54;;;;;;;5.07;3.97;;;;;;;13.96;88.37;101404.19;5032396;28;20022;-40
2023/09/24 07:36:21;;;;;;;8.85;4.45;;;;;;;14.06;88.72;101403.75;5032207;28;20516;-40
2023/09/24 07:38:50;;;;;;;5.50;4.90;;;;;;;14.03;89.25;101395.25;5032320;28;20470;-40
2023/09/24 07:41:19;;;;;;;4.82;4.32;;;;;;;14.10;88.27;101385.28;5032155;28;20109;-40
2023/09/24 07:43:46;;;;;;;4.93;4.10;;;;;;;14.17;87.89;101386.91;5032476;28;20037;-40
2023/09/24 07:46:14;;;;;;;6.43;4.43;;;;;;;14.03;88.26;101387.19;5032292;28;20044;-40
2023/09/24 07:48:43;;;;;;;5.50;3.75;;;;;;;14.09;88.14;101389.84;5032202;28;20087;-41
2023/09/24 07:51:10;;;;;;;8.98;4.68;;;;;;;14.05;88.23;101394.03;5032220;28;20461;-40
2023/09/24 07:53:36;;;;;;;4.70;4.10;;;;;;;14.09;88.01;101389.00;5031826;28;20033;-40
2023/09/24 07:56:07;;;;;;;7.47;3.95;;;;;;;13.94;88.50;101389.31;5034180;28;20125;-40
2023/09/24 07:58:34;;;;;;;6.13;4.18;;;;;;;14.05;87.99;101395.84;5036116;28;20453;-40
2023/09/24 08:01:22;;;;;;;5.00;3.88;;;;;;;14.02;88.10;101399.00;5035724;28;20078;-40
2023/09/24 08:03:49;;;;;;;6.32;4.55;;;;;;;13.98;88.47;101388.66;5035844;28;20119;-41
2023/09/24 08:06:16;;;;;;;5.25;4.10;;;;;;;13.95;88.74;101388.28;5035517;28;20045;-40
2023/09/24 08:08:42;;;;;;;4.57;3.78;;;;;;;13.90;88.76;101393.47;5035482;28;20026;-40
2023/09/24 08:11:08;;;;;;;5.13;3.95;;;;;;;13.95;88.90;101394.47;5035548;28;20021;-40
2023/09/24 08:13:35;;;;;;;4.15;3.47;;;;;;;13.99;88.71;101405.63;5035478;28;20106;-41
2023/09/24 08:16:01;;;;;;;4.93;4.10;;;;;;;14.17;87.85;101410.31;5035755;28;20048;-40
2023/09/24 08:18:27;;;;;;;5.90;4.45;;;;;;;13.85;88.66;101420.19;5035870;28;20060;-40
2023/09/24 08:20:54;;;;;;;7.13;4.53;;;;;;;13.91;88.76;101413.94;5035393;28;20033;-40
2023/09/24 08:23:23;;;;;;;4.35;3.70;;;;;;;13.94;88.50;101419.75;5035123;28;20034;-41
2023/09/24 08:25:53;;;;;;;5.97;4.68;;;;;;;13.84;88.61;101432.81;5035620;28;20032;-40
2023/09/24 08:28:19;;;;;;;8.68;5.25;;;;;;;13.81;88.46;101432.41;5035191;28;20450;-40
2023/09/24 08:30:46;;;;;;;7.63;6.07;;;;;;;13.89;88.22;101421.44;5035273;28;20033;-40
2023/09/24 08:33:12;;;;;;;8.88;6.10;;;;;;;13.83;87.63;101416.91;5035526;28;20026;-40
2023/09/24 08:35:39;;;;;;;7.47;6.32;;;;;;;13.99;86.98;101411.00;5035450;28;20022;-40
2023/09/24 08:38:07;;;;;;;8.93;6.65;;;;;;;13.79;87.38;101404.91;5034900;28;20497;-40
2023/09/24 08:40:33;;;;;;;10.20;7.00;;;;;;;13.67;87.72;101408.25;5035173;28;20068;-40
2023/09/24 08:42:59;;;;;;;8.52;6.43;;;;;;;13.75;87.02;101407.19;5035154;28;20056;-40
2023/09/24 08:45:28;;;;;;;8.35;6.32;;;;;;;13.68;87.67;101403.69;5034920;28;20025;-40
2023/09/24 08:47:56;;;;;;;7.40;6.03;;;;;;;13.69;87.42;101398.09;5034811;28;20597;-40
2023/09/24 08:50:22;;;;;;;7.00;5.68;;;;;;;13.71;87.77;101397.88;5035027;28;20091;-40
2023/09/24 08:52:49;;;;;;;12.75;5.07;;;;;;;13.85;88.80;101387.91;5034869;28;20037;-40
2023/09/24 08:55:15;;;;;;;5.20;4.47;;;;;;;13.88;88.65;101391.00;5035005;28;20025;-40
2023/09/24 08:57:46;;;;;;;4.85;3.88;;;;;;;13.88;88.98;101393.69;5034985;28;20049;-40
2023/09/24 09:00:15;;;;;;;5.28;3.90;;;;;;;13.87;89.85;101389.31;5034581;28;20029;-40
2023/09/24 09:02:45;;;;;;;6.28;4.28;;;;;;;13.92;89.97;101388.69;5034570;28;20026;-40
2023/09/24 09:05:22;;;;;;;6.13;4.55;;;;;;;13.74;90.90;101392.09;5034536;28;20025;-40
2023/09/24 09:08:01;;;;;;;5.85;4.28;;;;;;;13.86;91.11;101385.00;5034161;28;20054;-40
2023/09/24 09:10:29;;;;;;;7.53;4.45;;;;;;;13.82;90.99;101386.44;5034661;28;20021;-40
2023/09/24 09:13:17;;;;;;;5.90;4.53;;;;;;;13.87;91.05;101385.81;5034560;28;20033;-40
2023/09/24 09:15:44;;;;;;;8.68;4.75;;;;;;;13.84;90.26;101379.00;5033898;28;20032;-40
2023/09/24 09:18:25;;;;;;;5.43;4.47;;;;;;;13.89;89.97;101381.06;5034700;28;20104;-40
2023/09/24 09:21:00;;;;;;;6.05;4.80;;;;;;;13.78;90.89;101387.13;5034327;28;20478;-42
2023/09/24 09:23:35;;;;;;;6.43;4.00;;;;;;;13.83;91.85;101381.91;5034506;28;20424;-40
2023/09/24 09:26:02;;;;;;;4.78;4.22;;;;;;;13.80;92.08;101385.84;5034240;28;20037;-40
2023/09/24 09:28:30;;;;;;;7.07;5.28;;;;;;;13.85;92.08;101379.81;5034397;28;20022;-40
2023/09/24 09:31:10;;;;;;;5.25;4.75;;;;;;;13.81;92.89;101378.59;5034024;28;20029;-40
2023/09/24 09:33:42;;;;;;;4.65;4.15;;;;;;;13.85;93.21;101366.38;5034606;28;20029;-40
2023/09/24 09:36:30;;;;;;;4.82;4.35;;;;;;;13.88;93.28;101364.09;5033934;28;20101;-40
2023/09/24 09:38:58;;;;;;;6.63;4.70;;;;;;;13.84;93.55;101370.13;5034026;28;20029;-40
2023/09/24 09:41:25;;;;;;;5.35;4.63;;;;;;;13.81;93.43;101363.28;5033948;28;20100;-40
2023/09/24 09:43:53;;;;;;;4.97;4.30;;;;;;;13.84;93.35;101357.47;5033690;28;20033;-40
2023/09/24 09:46:23;;;;;;;5.30;4.40;;;;;;;13.80;93.57;101353.56;5034011;28;20029;-40
2023/09/24 09:49:04;;;;;;;9.68;5.15;;;;;;;13.82;93.66;101354.16;5033757;28;20025;-40
2023/09/24 09:51:39;;;;;;;6.18;5.10;;;;;;;13.84;93.72;101359.34;5033648;28;20029;-40
2023/09/24 09:54:06;;;;;;;5.40;4.43;;;;;;;13.90;93.57;101353.09;5033695;28;20030;-40
2023/09/24 09:56:38;;;;;;;6.13;5.43;;;;;;;13.91;92.97;101357.44;5033624;28;20071;-41
2023/09/24 09:59:08;;;;;;;6.03;4.63;;;;;;;13.98;92.35;101350.97;5033559;28;20556;-40
2023/09/24 10:01:34;;;;;;;8.13;5.55;;;;;;;13.94;92.09;101344.38;5033492;28;20108;-40
2023/09/24 10:04:03;;;;;;;5.10;4.47;;;;;;;13.92;91.99;101346.44;5033151;28;20037;-40
2023/09/24 10:06:37;;;;;;;6.60;5.35;;;;;;;13.96;92.07;101346.84;5033386;28;20029;-40
2023/09/24 10:09:43;;;;;;;5.70;4.45;;;;;;;14.02;91.65;101348.69;5033676;28;20017;-41
2023/09/24 10:12:09;;;;;;;6.13;4.75;;;;;;;14.05;91.68;101347.41;5033109;28;20034;-40
2023/09/24 10:14:37;;;;;;;6.40;5.30;;;;;;;13.95;92.99;101345.22;5033226;28;20398;-40
2023/09/24 10:17:30;;;;;;;5.63;4.70;;;;;;;14.17;92.73;101348.38;5033131;28;20100;-40
2023/09/24 10:20:18;;;;;;;6.85;5.28;;;;;;;14.24;92.56;101341.09;5031241;28;20044;-40
2023/09/24 10:22:45;;;;;;;6.10;4.93;;;;;;;14.25;93.30;101338.16;5033105;28;20525;-40
2023/09/24 10:25:46;;;;;;;6.35;4.43;;;;;;;14.34;92.69;101346.00;5033082;28;20509;-40
2023/09/24 10:28:12;;;;;;;5.47;4.72;;;;;;;14.32;92.10;101339.97;5021642;28;20398;-40
2023/09/24 10:31:03;;;;;;;5.72;4.53;;;;;;;14.24;92.14;101347.28;5032997;28;20028;-40
2023/09/24 10:33:53;;;;;;;7.95;5.15;;;;;;;14.30;92.09;101342.09;5029832;28;20037;-41
2023/09/24 10:36:26;;;;;;;6.88;4.90;;;;;;;14.28;91.96;101342.31;5032963;28;20099;-40
2023/09/24 10:39:07;;;;;;;7.90;4.85;;;;;;;14.19;92.79;101341.72;5032921;28;20025;-40
2023/09/24 10:41:34;;;;;;;6.97;4.85;;;;;;;14.31;92.63;101347.25;5032743;28;20116;-41
2023/09/24 10:44:19;;;;;;;8.02;4.70;;;;;;;14.33;92.84;101342.47;5032807;28;20040;-40
2023/09/24 10:46:45;;;;;;;6.90;4.50;;;;;;;14.47;92.71;101343.22;5032936;28;20022;-40
2023/09/24 10:49:21;;;;;;;8.40;5.22;;;;;;;14.38;92.84;101348.03;5032869;28;20037;-40
2023/09/24 10:51:58;;;;;;;5.43;4.40;;;;;;;14.53;92.69;101348.53;5032785;28;20541;-40
2023/09/24 10:54:24;;;;;;;5.93;4.68;;;;;;;14.52;92.52;101352.28;5032862;28;20481;-40
2023/09/24 10:56:50;;;;;;;7.88;4.63;;;;;;;14.66;91.82;101344.13;5032944;28;20478;-40
2023/09/24 10:59:16;;;;;;;5.53;4.82;;;;;;;14.74;91.39;101346.53;5032869;28;20025;-40
2023/09/24 11:01:43;;;;;;;5.65;4.70;;;;;;;14.64;91.38;101341.63;5033094;28;20030;-40
2023/09/24 11:04:09;;;;;;;7.20;4.85;;;;;;;14.71;90.29;101355.88;5032455;28;20033;-40
2023/09/24 11:06:36;;;;;;;5.35;4.32;;;;;;;14.65;90.86;101353.22;5032609;28;20429;-40
2023/09/24 11:09:16;;;;;;;8.25;5.07;;;;;;;14.72;90.33;101352.13;5032859;28;20052;-40
2023/09/24 11:11:43;;;;;;;6.72;5.05;;;;;;;14.79;90.03;101352.06;5032398;28;20029;-40
2023/09/24 11:14:23;;;;;;;5.70;5.10;;;;;;;14.76;90.34;101353.31;5032486;28;20036;-40
2023/09/24 11:16:54;;;;;;;6.22;4.63;;;;;;;14.89;89.48;101352.41;5032687;28;20022;-40
2023/09/24 11:19:45;;;;;;;7.45;4.70;;;;;;;14.97;89.02;101353.97;5032471;28;20032;-40
2023/09/24 11:22:21;;;;;;;5.97;5.32;;;;;;;14.80;89.76;101345.63;5032673;28;20036;-40
2023/09/24 11:25:16;;;;;;;5.30;4.22;;;;;;;14.91;88.96;101350.28;5032443;28;20049;-40
2023/09/24 11:27:47;;;;;;;7.07;5.25;;;;;;;14.90;88.28;101354.03;5032611;28;20021;-40